sensor_id;sensor_type;location;lat;lon;timestamp;pressure;altitude;pressure_sealevel;temperature;humidity
76195;BME280;64964;48.694;21.206;2023-08-30T00:00:54;96924.84;;;19.28;80.55
76195;BME280;64964;48.694;21.206;2023-08-30T00:03:19;96924.53;;;19.25;81.25
76195;BME280;64964;48.694;21.206;2023-08-30T00:05:45;96891.72;;;19.12;81.38
76195;BME280;64964;48.694;21.206;2023-08-30T00:08:10;96920.84;;;19.31;80.69
76195;BME280;64964;48.694;21.206;2023-08-30T00:10:36;96927.84;;;19.32;80.78
76195;BME280;64964;48.694;21.206;2023-08-30T00:13:03;96876.41;;;19.08;81.49
76195;BME280;64964;48.694;21.206;2023-08-30T00:15:29;96908.31;;;19.36;80.56
76195;BME280;64964;48.694;21.206;2023-08-30T00:17:54;96916.09;;;19.38;80.57
76195;BME280;64964;48.694;21.206;2023-08-30T00:20:20;96899.34;;;19.26;80.33
76195;BME280;64964;48.694;21.206;2023-08-30T00:22:47;96925.53;;;19.40;80.13
76195;BME280;64964;48.694;21.206;2023-08-30T00:25:16;96888.50;;;19.37;80.31
76195;BME280;64964;48.694;21.206;2023-08-30T00:27:41;96905.69;;;19.41;80.43
76195;BME280;64964;48.694;21.206;2023-08-30T00:30:07;96903.81;;;19.42;79.75
76195;BME280;64964;48.694;21.206;2023-08-30T00:32:34;96896.84;;;19.41;80.23
76195;BME280;64964;48.694;21.206;2023-08-30T00:34:59;96898.75;;;19.46;80.34
76195;BME280;64964;48.694;21.206;2023-08-30T00:37:25;96899.31;;;19.48;79.98
76195;BME280;64964;48.694;21.206;2023-08-30T00:39:50;96921.63;;;19.53;79.44
76195;BME280;64964;48.694;21.206;2023-08-30T00:42:15;96916.75;;;19.50;79.36
76195;BME280;64964;48.694;21.206;2023-08-30T00:44:41;96929.97;;;19.57;79.37
76195;BME280;64964;48.694;21.206;2023-08-30T00:47:06;96934.00;;;19.59;79.34
76195;BME280;64964;48.694;21.206;2023-08-30T00:49:32;96931.94;;;19.61;78.61
76195;BME280;64964;48.694;21.206;2023-08-30T00:52:01;96922.00;;;19.62;78.84
76195;BME280;64964;48.694;21.206;2023-08-30T00:54:28;96913.16;;;19.61;78.42
76195;BME280;64964;48.694;21.206;2023-08-30T00:56:54;96910.53;;;19.67;78.22
76195;BME280;64964;48.694;21.206;2023-08-30T00:59:20;96901.97;;;19.70;78.13
76195;BME280;64964;48.694;21.206;2023-08-30T01:01:45;96910.81;;;19.70;78.19
76195;BME280;64964;48.694;21.206;2023-08-30T01:04:11;96905.47;;;19.70;78.52
76195;BME280;64964;48.694;21.206;2023-08-30T01:06:36;96901.72;;;19.71;78.03
76195;BME280;64964;48.694;21.206;2023-08-30T01:09:02;96893.16;;;19.74;77.93
76195;BME280;64964;48.694;21.206;2023-08-30T01:11:40;96899.38;;;19.80;79.24
76195;BME280;64964;48.694;21.206;2023-08-30T01:14:18;96890.25;;;19.81;78.33
76195;BME280;64964;48.694;21.206;2023-08-30T01:16:46;96896.41;;;19.81;77.22
76195;BME280;64964;48.694;21.206;2023-08-30T01:19:42;96906.88;;;19.78;78.06
76195;BME280;64964;48.694;21.206;2023-08-30T01:27:17;96899.75;;;19.39;78.49
76195;BME280;64964;48.694;21.206;2023-08-30T01:29:44;96907.75;;;19.34;79.24
76195;BME280;64964;48.694;21.206;2023-08-30T01:32:11;96912.25;;;19.29;79.54
76195;BME280;64964;48.694;21.206;2023-08-30T01:34:39;96864.69;;;18.92;79.29
76195;BME280;64964;48.694;21.206;2023-08-30T01:37:06;96916.13;;;19.16;79.77
76195;BME280;64964;48.694;21.206;2023-08-30T01:39:34;96901.31;;;19.08;79.67
76195;BME280;64964;48.694;21.206;2023-08-30T01:42:00;96917.97;;;19.10;79.99
76195;BME280;64964;48.694;21.206;2023-08-30T01:44:30;96923.31;;;19.10;80.10
76195;BME280;64964;48.694;21.206;2023-08-30T01:46:56;96936.13;;;19.08;80.44
76195;BME280;64964;48.694;21.206;2023-08-30T01:49:23;96930.47;;;19.05;80.02
76195;BME280;64964;48.694;21.206;2023-08-30T01:51:50;96923.19;;;19.00;80.06
76195;BME280;64964;48.694;21.206;2023-08-30T01:54:18;96910.72;;;18.89;80.12
76195;BME280;64964;48.694;21.206;2023-08-30T01:56:44;96917.72;;;18.90;79.52
76195;BME280;64964;48.694;21.206;2023-08-30T01:59:10;96917.63;;;18.85;79.50
76195;BME280;64964;48.694;21.206;2023-08-30T02:01:36;96926.25;;;18.87;79.00
76195;BME280;64964;48.694;21.206;2023-08-30T02:04:01;96920.06;;;18.86;79.17
76195;BME280;64964;48.694;21.206;2023-08-30T02:06:48;96916.00;;;18.84;78.84
76195;BME280;64964;48.694;21.206;2023-08-30T02:09:22;96923.81;;;18.85;78.67
76195;BME280;64964;48.694;21.206;2023-08-30T02:11:50;96888.47;;;18.66;78.49
76195;BME280;64964;48.694;21.206;2023-08-30T02:14:17;96920.06;;;18.86;78.56
76195;BME280;64964;48.694;21.206;2023-08-30T02:16:45;96924.38;;;18.87;78.28
76195;BME280;64964;48.694;21.206;2023-08-30T02:19:12;96906.84;;;18.80;78.36
76195;BME280;64964;48.694;21.206;2023-08-30T02:21:42;96914.88;;;18.80;78.40
76195;BME280;64964;48.694;21.206;2023-08-30T02:24:07;96913.34;;;18.84;78.42
76195;BME280;64964;48.694;21.206;2023-08-30T02:26:33;96911.41;;;18.79;78.17
76195;BME280;64964;48.694;21.206;2023-08-30T02:28:59;96906.22;;;18.73;78.29
76195;BME280;64964;48.694;21.206;2023-08-30T02:31:24;96901.94;;;18.72;77.88
76195;BME280;64964;48.694;21.206;2023-08-30T02:33:49;96903.41;;;18.62;78.64
76195;BME280;64964;48.694;21.206;2023-08-30T02:36:15;96893.50;;;18.63;79.10
76195;BME280;64964;48.694;21.206;2023-08-30T02:38:40;96899.16;;;18.66;78.75
76195;BME280;64964;48.694;21.206;2023-08-30T02:41:05;96903.81;;;18.71;78.82
76195;BME280;64964;48.694;21.206;2023-08-30T02:43:31;96913.53;;;18.77;78.49
76195;BME280;64964;48.694;21.206;2023-08-30T02:45:56;96913.59;;;18.82;78.28
76195;BME280;64964;48.694;21.206;2023-08-30T02:48:22;96914.72;;;18.86;78.12
76195;BME280;64964;48.694;21.206;2023-08-30T02:50:47;96925.50;;;18.91;77.61
76195;BME280;64964;48.694;21.206;2023-08-30T02:53:12;96919.63;;;18.95;77.89
76195;BME280;64964;48.694;21.206;2023-08-30T02:55:38;96918.09;;;18.99;77.80
76195;BME280;64964;48.694;21.206;2023-08-30T02:58:03;96914.88;;;19.02;77.66
76195;BME280;64964;48.694;21.206;2023-08-30T03:00:28;96903.38;;;19.01;77.31
76195;BME280;64964;48.694;21.206;2023-08-30T03:02:54;96903.19;;;19.08;77.13
76195;BME280;64964;48.694;21.206;2023-08-30T03:05:19;96901.56;;;19.07;77.06
76195;BME280;64964;48.694;21.206;2023-08-30T03:07:45;96903.50;;;19.11;76.82
76195;BME280;64964;48.694;21.206;2023-08-30T03:10:11;96895.69;;;19.10;76.93
76195;BME280;64964;48.694;21.206;2023-08-30T03:12:37;96903.50;;;19.11;76.95
76195;BME280;64964;48.694;21.206;2023-08-30T03:15:02;96890.09;;;19.11;77.19
76195;BME280;64964;48.694;21.206;2023-08-30T03:17:29;96888.22;;;19.12;76.93
76195;BME280;64964;48.694;21.206;2023-08-30T03:19:55;96886.34;;;19.12;76.94
76195;BME280;64964;48.694;21.206;2023-08-30T03:22:20;96897.66;;;19.14;76.75
76195;BME280;64964;48.694;21.206;2023-08-30T03:24:45;96893.31;;;19.13;76.81
76195;BME280;64964;48.694;21.206;2023-08-30T03:27:11;96885.25;;;19.08;77.00
76195;BME280;64964;48.694;21.206;2023-08-30T03:29:36;96887.16;;;19.13;76.26
76195;BME280;64964;48.694;21.206;2023-08-30T03:32:01;96892.78;;;19.11;76.86
76195;BME280;64964;48.694;21.206;2023-08-30T03:34:27;96873.13;;;19.06;76.59
76195;BME280;64964;48.694;21.206;2023-08-30T03:36:52;96886.84;;;19.09;76.50
76195;BME280;64964;48.694;21.206;2023-08-30T03:39:22;96831.88;;;18.80;76.44
76195;BME280;64964;48.694;21.206;2023-08-30T03:41:49;96873.72;;;19.08;76.21
76195;BME280;64964;48.694;21.206;2023-08-30T03:44:14;96865.63;;;19.03;76.82
76195;BME280;64964;48.694;21.206;2023-08-30T03:46:40;96880.16;;;19.07;76.74
76195;BME280;64964;48.694;21.206;2023-08-30T03:49:05;96882.81;;;19.07;76.36
76195;BME280;64964;48.694;21.206;2023-08-30T03:51:30;96882.25;;;19.05;76.75
76195;BME280;64964;48.694;21.206;2023-08-30T03:53:56;96892.72;;;19.06;76.72
76195;BME280;64964;48.694;21.206;2023-08-30T03:56:22;96889.22;;;19.06;76.58
76195;BME280;64964;48.694;21.206;2023-08-30T03:58:47;96891.41;;;19.09;76.61
76195;BME280;64964;48.694;21.206;2023-08-30T04:01:13;96903.19;;;19.08;77.06
76195;BME280;64964;48.694;21.206;2023-08-30T04:03:38;96894.03;;;19.04;76.64
76195;BME280;64964;48.694;21.206;2023-08-30T04:06:03;96898.31;;;19.05;76.52
76195;BME280;64964;48.694;21.206;2023-08-30T04:08:29;96904.78;;;19.09;76.80
76195;BME280;64964;48.694;21.206;2023-08-30T04:10:54;96905.28;;;19.06;76.93
76195;BME280;64964;48.694;21.206;2023-08-30T04:13:20;96914.22;;;19.11;76.45
76195;BME280;64964;48.694;21.206;2023-08-30T04:15:45;96915.81;;;19.12;76.97
76195;BME280;64964;48.694;21.206;2023-08-30T04:18:11;96918.25;;;19.14;76.81
76195;BME280;64964;48.694;21.206;2023-08-30T04:20:36;96918.50;;;19.12;76.88
76195;BME280;64964;48.694;21.206;2023-08-30T04:23:02;96917.13;;;19.10;77.01
76195;BME280;64964;48.694;21.206;2023-08-30T04:25:28;96919.63;;;19.16;77.16
76195;BME280;64964;48.694;21.206;2023-08-30T04:27:54;96926.59;;;19.17;77.04
76195;BME280;64964;48.694;21.206;2023-08-30T04:30:19;96919.88;;;19.15;77.43
76195;BME280;64964;48.694;21.206;2023-08-30T04:32:45;96918.81;;;19.16;77.21
76195;BME280;64964;48.694;21.206;2023-08-30T04:35:10;96923.69;;;19.19;77.28
76195;BME280;64964;48.694;21.206;2023-08-30T04:37:36;96927.47;;;19.23;77.16
76195;BME280;64964;48.694;21.206;2023-08-30T04:40:03;96922.66;;;19.25;77.18
76195;BME280;64964;48.694;21.206;2023-08-30T04:42:29;96917.31;;;19.25;77.45
76195;BME280;64964;48.694;21.206;2023-08-30T04:44:54;96925.91;;;19.27;77.36
76195;BME280;64964;48.694;21.206;2023-08-30T04:47:21;96930.22;;;19.28;77.13
76195;BME280;64964;48.694;21.206;2023-08-30T04:49:50;96924.59;;;19.30;77.50
76195;BME280;64964;48.694;21.206;2023-08-30T04:52:16;96928.88;;;19.31;77.57
76195;BME280;64964;48.694;21.206;2023-08-30T04:54:42;96936.44;;;19.34;77.36
76195;BME280;64964;48.694;21.206;2023-08-30T04:57:08;96931.66;;;19.36;77.11
76195;BME280;64964;48.694;21.206;2023-08-30T04:59:33;96924.41;;;19.36;76.89
76195;BME280;64964;48.694;21.206;2023-08-30T05:01:59;96925.72;;;19.34;76.81
76195;BME280;64964;48.694;21.206;2023-08-30T05:04:24;96929.25;;;19.39;76.64
76195;BME280;64964;48.694;21.206;2023-08-30T05:06:50;96927.94;;;19.42;76.99
76195;BME280;64964;48.694;21.206;2023-08-30T05:09:15;96918.59;;;19.45;76.16
76195;BME280;64964;48.694;21.206;2023-08-30T05:11:40;96928.50;;;19.44;77.02
76195;BME280;64964;48.694;21.206;2023-08-30T05:14:06;96926.38;;;19.46;76.76
76195;BME280;64964;48.694;21.206;2023-08-30T05:16:32;96925.31;;;19.47;77.31
76195;BME280;64964;48.694;21.206;2023-08-30T05:18:57;96928.06;;;19.52;76.85
76195;BME280;64964;48.694;21.206;2023-08-30T05:21:23;96918.94;;;19.53;76.77
76195;BME280;64964;48.694;21.206;2023-08-30T05:23:48;96928.66;;;19.59;77.00
76195;BME280;64964;48.694;21.206;2023-08-30T05:26:13;96933.28;;;19.64;77.12
76195;BME280;64964;48.694;21.206;2023-08-30T05:28:39;96920.13;;;19.62;77.05
76195;BME280;64964;48.694;21.206;2023-08-30T05:31:04;96929.09;;;19.73;76.67
76195;BME280;64964;48.694;21.206;2023-08-30T05:33:30;96934.50;;;19.78;76.95
76195;BME280;64964;48.694;21.206;2023-08-30T05:35:56;96938.28;;;19.82;76.71
76195;BME280;64964;48.694;21.206;2023-08-30T05:38:21;96932.97;;;19.87;76.66
76195;BME280;64964;48.694;21.206;2023-08-30T05:40:46;96938.38;;;19.93;77.12
76195;BME280;64964;48.694;21.206;2023-08-30T05:43:12;96944.03;;;19.96;76.78
76195;BME280;64964;48.694;21.206;2023-08-30T05:45:37;96938.97;;;20.00;76.89
76195;BME280;64964;48.694;21.206;2023-08-30T05:48:03;96939.03;;;20.05;76.90
76195;BME280;64964;48.694;21.206;2023-08-30T05:50:29;96945.22;;;20.10;76.99
76195;BME280;64964;48.694;21.206;2023-08-30T05:52:54;96938.53;;;20.13;77.24
76195;BME280;64964;48.694;21.206;2023-08-30T05:55:20;96940.97;;;20.14;76.71
76195;BME280;64964;48.694;21.206;2023-08-30T05:57:45;96936.97;;;20.17;76.77
76195;BME280;64964;48.694;21.206;2023-08-30T06:00:11;96937.53;;;20.19;76.81
76195;BME280;64964;48.694;21.206;2023-08-30T06:02:38;96944.53;;;20.25;76.62
76195;BME280;64964;48.694;21.206;2023-08-30T06:05:05;96948.88;;;20.31;76.56
76195;BME280;64964;48.694;21.206;2023-08-30T06:07:31;96951.84;;;20.35;76.54
76195;BME280;64964;48.694;21.206;2023-08-30T06:09:57;96943.81;;;20.35;76.35
76195;BME280;64964;48.694;21.206;2023-08-30T06:12:22;96939.25;;;20.35;76.59
76195;BME280;64964;48.694;21.206;2023-08-30T06:14:47;96949.75;;;20.42;76.52
76195;BME280;64964;48.694;21.206;2023-08-30T06:17:17;96953.56;;;20.46;76.37
76195;BME280;64964;48.694;21.206;2023-08-30T06:19:44;96941.44;;;20.44;76.68
76195;BME280;64964;48.694;21.206;2023-08-30T06:22:09;96958.97;;;20.51;75.99
76195;BME280;64964;48.694;21.206;2023-08-30T06:24:34;96953.91;;;20.55;76.47
76195;BME280;64964;48.694;21.206;2023-08-30T06:27:00;96963.06;;;20.59;76.76
76195;BME280;64964;48.694;21.206;2023-08-30T06:29:25;96971.16;;;20.64;76.21
76195;BME280;64964;48.694;21.206;2023-08-30T06:31:50;96971.72;;;20.66;76.77
76195;BME280;64964;48.694;21.206;2023-08-30T06:34:16;96973.06;;;20.69;76.73
76195;BME280;64964;48.694;21.206;2023-08-30T06:36:41;96987.66;;;20.78;76.74
76195;BME280;64964;48.694;21.206;2023-08-30T06:39:07;96972.84;;;20.75;76.14
76195;BME280;64964;48.694;21.206;2023-08-30T06:41:32;96973.66;;;20.81;76.49
76195;BME280;64964;48.694;21.206;2023-08-30T06:43:57;96971.25;;;20.79;76.43
76195;BME280;64964;48.694;21.206;2023-08-30T06:46:23;96968.56;;;20.79;76.32
76195;BME280;64964;48.694;21.206;2023-08-30T06:48:48;96965.06;;;20.79;75.97
76195;BME280;64964;48.694;21.206;2023-08-30T06:51:14;96960.78;;;20.78;76.16
76195;BME280;64964;48.694;21.206;2023-08-30T06:53:39;96959.69;;;20.79;76.38
76195;BME280;64964;48.694;21.206;2023-08-30T06:56:04;96956.22;;;20.78;76.74
76195;BME280;64964;48.694;21.206;2023-08-30T06:58:30;96960.53;;;20.89;76.66
76195;BME280;64964;48.694;21.206;2023-08-30T07:00:57;96960.84;;;20.93;75.88
76195;BME280;64964;48.694;21.206;2023-08-30T07:03:22;96969.97;;;20.92;75.94
76195;BME280;64964;48.694;21.206;2023-08-30T07:05:47;96974.53;;;20.92;75.24
76195;BME280;64964;48.694;21.206;2023-08-30T07:08:16;96987.41;;;20.89;75.88
76195;BME280;64964;48.694;21.206;2023-08-30T07:10:41;96982.59;;;20.86;75.70
76195;BME280;64964;48.694;21.206;2023-08-30T07:13:07;96991.97;;;20.89;76.28
76195;BME280;64964;48.694;21.206;2023-08-30T07:15:36;96999.03;;;20.95;76.40
76195;BME280;64964;48.694;21.206;2023-08-30T07:18:02;96994.69;;;20.94;74.51
76195;BME280;64964;48.694;21.206;2023-08-30T07:20:28;96983.31;;;20.77;74.64
76195;BME280;64964;48.694;21.206;2023-08-30T07:22:54;96980.59;;;20.67;75.06
76195;BME280;64964;48.694;21.206;2023-08-30T07:25:19;96997.53;;;20.72;74.37
76195;BME280;64964;48.694;21.206;2023-08-30T07:27:45;97003.41;;;20.69;74.32
76195;BME280;64964;48.694;21.206;2023-08-30T07:30:10;97005.25;;;20.63;74.68
76195;BME280;64964;48.694;21.206;2023-08-30T07:32:36;97009.19;;;20.51;74.77
76195;BME280;64964;48.694;21.206;2023-08-30T07:35:03;97004.75;;;20.34;75.05
76195;BME280;64964;48.694;21.206;2023-08-30T07:37:29;97002.53;;;20.26;75.42
76195;BME280;64964;48.694;21.206;2023-08-30T07:39:54;96998.22;;;20.25;75.66
76195;BME280;64964;48.694;21.206;2023-08-30T07:42:20;97000.59;;;20.22;75.64
76195;BME280;64964;48.694;21.206;2023-08-30T07:44:45;96992.25;;;20.18;76.42
76195;BME280;64964;48.694;21.206;2023-08-30T07:47:10;96997.16;;;20.26;76.60
76195;BME280;64964;48.694;21.206;2023-08-30T07:49:36;96973.78;;;20.22;75.88
76195;BME280;64964;48.694;21.206;2023-08-30T07:52:01;96995.41;;;20.42;76.52
76195;BME280;64964;48.694;21.206;2023-08-30T07:54:28;96992.00;;;20.52;75.62
76195;BME280;64964;48.694;21.206;2023-08-30T07:56:53;96990.44;;;20.56;75.02
76195;BME280;64964;48.694;21.206;2023-08-30T07:59:18;96988.53;;;20.51;75.12
76195;BME280;64964;48.694;21.206;2023-08-30T08:01:44;96988.31;;;20.58;75.72
76195;BME280;64964;48.694;21.206;2023-08-30T08:04:09;96989.16;;;20.63;75.65
76195;BME280;64964;48.694;21.206;2023-08-30T08:06:34;96979.22;;;20.69;75.83
76195;BME280;64964;48.694;21.206;2023-08-30T08:09:00;96983.31;;;20.77;75.86
76195;BME280;64964;48.694;21.206;2023-08-30T08:11:25;96986.28;;;20.80;75.89
76195;BME280;64964;48.694;21.206;2023-08-30T08:13:51;96989.31;;;20.89;75.47
76195;BME280;64964;48.694;21.206;2023-08-30T08:16:16;96986.63;;;20.94;75.58
76195;BME280;64964;48.694;21.206;2023-08-30T08:18:41;96971.34;;;20.95;75.60
76195;BME280;64964;48.694;21.206;2023-08-30T08:21:07;96991.84;;;21.11;76.24
76195;BME280;64964;48.694;21.206;2023-08-30T08:23:32;96993.78;;;21.21;74.67
76195;BME280;64964;48.694;21.206;2023-08-30T08:26:00;96995.38;;;21.22;74.36
76195;BME280;64964;48.694;21.206;2023-08-30T08:28:28;96991.63;;;21.23;74.88
76195;BME280;64964;48.694;21.206;2023-08-30T08:30:53;96995.94;;;21.24;74.55
76195;BME280;64964;48.694;21.206;2023-08-30T08:33:19;96992.97;;;21.20;74.86
76195;BME280;64964;48.694;21.206;2023-08-30T08:35:45;96998.66;;;21.29;74.89
76195;BME280;64964;48.694;21.206;2023-08-30T08:38:10;96999.78;;;21.38;73.87
76195;BME280;64964;48.694;21.206;2023-08-30T08:40:37;97000.06;;;21.36;74.15
76195;BME280;64964;48.694;21.206;2023-08-30T08:43:05;96994.94;;;21.40;73.97
76195;BME280;64964;48.694;21.206;2023-08-30T08:45:32;97000.88;;;21.42;74.46
76195;BME280;64964;48.694;21.206;2023-08-30T08:48:00;97000.88;;;21.42;74.68
76195;BME280;64964;48.694;21.206;2023-08-30T08:50:27;96996.31;;;21.48;74.73
76195;BME280;64964;48.694;21.206;2023-08-30T08:52:54;96999.84;;;21.53;73.41
76195;BME280;64964;48.694;21.206;2023-08-30T08:55:21;97002.25;;;21.55;72.81
76195;BME280;64964;48.694;21.206;2023-08-30T08:57:48;96998.75;;;21.49;72.73
76195;BME280;64964;48.694;21.206;2023-08-30T09:00:14;97011.13;;;21.50;72.89
76195;BME280;64964;48.694;21.206;2023-08-30T09:02:42;97003.34;;;21.49;73.56
76195;BME280;64964;48.694;21.206;2023-08-30T09:05:08;97008.72;;;21.54;73.42
76195;BME280;64964;48.694;21.206;2023-08-30T09:07:34;97015.72;;;21.60;73.22
76195;BME280;64964;48.694;21.206;2023-08-30T09:10:00;97018.97;;;21.62;73.17
76195;BME280;64964;48.694;21.206;2023-08-30T09:12:26;97010.59;;;21.53;73.21
76195;BME280;64964;48.694;21.206;2023-08-30T09:14:58;97009.53;;;21.54;73.29
76195;BME280;64964;48.694;21.206;2023-08-30T09:17:23;97014.09;;;21.49;73.02
76195;BME280;64964;48.694;21.206;2023-08-30T09:19:49;97015.44;;;21.51;73.28
76195;BME280;64964;48.694;21.206;2023-08-30T09:22:15;97004.94;;;21.45;74.11
76195;BME280;64964;48.694;21.206;2023-08-30T09:24:41;97017.91;;;21.63;73.71
76195;BME280;64964;48.694;21.206;2023-08-30T09:27:06;97025.97;;;21.73;72.85
76195;BME280;64964;48.694;21.206;2023-08-30T09:29:32;97027.63;;;21.84;72.83
76195;BME280;64964;48.694;21.206;2023-08-30T09:31:57;97019.03;;;21.87;72.76
76195;BME280;64964;48.694;21.206;2023-08-30T09:34:26;97027.13;;;21.98;71.37
76195;BME280;64964;48.694;21.206;2023-08-30T09:36:52;97021.22;;;22.01;71.93
76195;BME280;64964;48.694;21.206;2023-08-30T09:39:18;97026.59;;;22.06;70.20
76195;BME280;64964;48.694;21.206;2023-08-30T09:41:45;97029.56;;;22.04;70.14
76195;BME280;64964;48.694;21.206;2023-08-30T09:44:14;97025.50;;;21.97;70.02
76195;BME280;64964;48.694;21.206;2023-08-30T09:46:51;97025.50;;;21.92;70.89
76195;BME280;64964;48.694;21.206;2023-08-30T09:49:22;97022.28;;;21.95;71.77
76195;BME280;64964;48.694;21.206;2023-08-30T09:51:49;97018.00;;;22.04;71.58
76195;BME280;64964;48.694;21.206;2023-08-30T09:54:16;97011.28;;;22.11;71.41
76195;BME280;64964;48.694;21.206;2023-08-30T09:56:43;97015.59;;;22.23;71.71
76195;BME280;64964;48.694;21.206;2023-08-30T09:59:10;97005.38;;;22.30;70.90
76195;BME280;64964;48.694;21.206;2023-08-30T10:01:37;97012.38;;;22.36;71.09
76195;BME280;64964;48.694;21.206;2023-08-30T10:04:03;96997.84;;;22.42;70.43
76195;BME280;64964;48.694;21.206;2023-08-30T10:06:29;96953.69;;;22.18;71.76
76195;BME280;64964;48.694;21.206;2023-08-30T10:08:56;97005.09;;;22.52;70.82
76195;BME280;64964;48.694;21.206;2023-08-30T10:11:23;97000.81;;;22.51;70.97
76195;BME280;64964;48.694;21.206;2023-08-30T10:13:51;96998.09;;;22.56;70.26
76195;BME280;64964;48.694;21.206;2023-08-30T10:16:19;96999.44;;;22.63;69.92
76195;BME280;64964;48.694;21.206;2023-08-30T10:18:49;96991.09;;;22.65;70.38
76195;BME280;64964;48.694;21.206;2023-08-30T10:21:18;96990.81;;;22.72;70.09
76195;BME280;64964;48.694;21.206;2023-08-30T10:23:45;96974.09;;;22.70;69.83
76195;BME280;64964;48.694;21.206;2023-08-30T10:26:13;97001.59;;;22.87;69.94
76195;BME280;64964;48.694;21.206;2023-08-30T10:28:39;97004.53;;;22.91;68.14
76195;BME280;64964;48.694;21.206;2023-08-30T10:31:06;96994.84;;;22.79;67.89
76195;BME280;64964;48.694;21.206;2023-08-30T10:33:46;96986.47;;;22.81;67.64
76195;BME280;64964;48.694;21.206;2023-08-30T10:36:11;96993.75;;;22.85;67.20
76195;BME280;64964;48.694;21.206;2023-08-30T10:38:37;96974.38;;;22.83;67.47
76195;BME280;64964;48.694;21.206;2023-08-30T10:41:08;96982.72;;;22.92;67.37
76195;BME280;64964;48.694;21.206;2023-08-30T10:43:35;96979.22;;;22.97;68.23
76195;BME280;64964;48.694;21.206;2023-08-30T10:46:03;96975.69;;;23.01;68.67
76195;BME280;64964;48.694;21.206;2023-08-30T10:48:38;96980.78;;;23.13;69.45
76195;BME280;64964;48.694;21.206;2023-08-30T10:51:19;96975.34;;;23.18;69.84
76195;BME280;64964;48.694;21.206;2023-08-30T10:53:58;96985.28;;;23.28;68.39
76195;BME280;64964;48.694;21.206;2023-08-30T10:56:28;96982.31;;;23.34;68.73
76195;BME280;64964;48.694;21.206;2023-08-30T10:58:53;96979.56;;;23.45;68.47
76195;BME280;64964;48.694;21.206;2023-08-30T11:01:19;96980.56;;;23.59;66.97
76195;BME280;64964;48.694;21.206;2023-08-30T11:03:45;96979.44;;;23.75;66.61
76195;BME280;64964;48.694;21.206;2023-08-30T11:06:14;96978.53;;;23.90;68.33
76195;BME280;64964;48.694;21.206;2023-08-30T11:08:39;96969.47;;;24.10;67.71
76195;BME280;64964;48.694;21.206;2023-08-30T11:11:07;96977.34;;;24.41;67.57
76195;BME280;64964;48.694;21.206;2023-08-30T11:13:34;96974.22;;;24.57;66.35
76195;BME280;64964;48.694;21.206;2023-08-30T11:16:00;96979.03;;;24.66;66.17
76195;BME280;64964;48.694;21.206;2023-08-30T11:18:26;96977.53;;;24.78;65.42
76195;BME280;64964;48.694;21.206;2023-08-30T11:21:01;96974.28;;;24.81;64.99
76195;BME280;64964;48.694;21.206;2023-08-30T11:23:27;96973.16;;;24.88;64.72
76195;BME280;64964;48.694;21.206;2023-08-30T11:25:53;96985.75;;;24.97;61.74
76195;BME280;64964;48.694;21.206;2023-08-30T11:28:24;96982.44;;;24.76;62.11
76195;BME280;64964;48.694;21.206;2023-08-30T11:30:53;96970.59;;;24.72;62.37
76195;BME280;64964;48.694;21.206;2023-08-30T11:33:20;96958.00;;;24.87;62.61
76195;BME280;64964;48.694;21.206;2023-08-30T11:35:46;96963.59;;;25.19;61.16
76195;BME280;64964;48.694;21.206;2023-08-30T11:38:13;96965.84;;;25.36;60.43
76195;BME280;64964;48.694;21.206;2023-08-30T11:40:39;96965.13;;;25.49;59.66
76195;BME280;64964;48.694;21.206;2023-08-30T11:43:06;96970.69;;;25.58;59.25
76195;BME280;64964;48.694;21.206;2023-08-30T11:45:32;96972.75;;;25.66;57.73
76195;BME280;64964;48.694;21.206;2023-08-30T11:47:59;96972.31;;;25.59;57.30
76195;BME280;64964;48.694;21.206;2023-08-30T11:50:25;96968.94;;;25.48;57.19
76195;BME280;64964;48.694;21.206;2023-08-30T11:52:51;96955.44;;;25.24;57.30
76195;BME280;64964;48.694;21.206;2023-08-30T11:55:17;96970.13;;;25.18;57.91
76195;BME280;64964;48.694;21.206;2023-08-30T11:57:43;96968.34;;;25.08;58.57
76195;BME280;64964;48.694;21.206;2023-08-30T12:00:11;96959.88;;;25.15;58.23
76195;BME280;64964;48.694;21.206;2023-08-30T12:02:36;96952.53;;;25.21;60.12
76195;BME280;64964;48.694;21.206;2023-08-30T12:05:02;96948.72;;;25.41;58.29
76195;BME280;64964;48.694;21.206;2023-08-30T12:07:27;96944.34;;;25.45;57.20
76195;BME280;64964;48.694;21.206;2023-08-30T12:10:06;96929.22;;;25.44;57.72
76195;BME280;64964;48.694;21.206;2023-08-30T12:12:32;96926.72;;;25.47;56.98
76195;BME280;64964;48.694;21.206;2023-08-30T12:14:57;96932.72;;;25.44;56.47
76195;BME280;64964;48.694;21.206;2023-08-30T12:17:23;96925.25;;;25.36;57.80
76195;BME280;64964;48.694;21.206;2023-08-30T12:19:58;96922.75;;;25.21;56.77
76195;BME280;64964;48.694;21.206;2023-08-30T12:22:23;96930.66;;;25.17;56.93
76195;BME280;64964;48.694;21.206;2023-08-30T12:24:49;96924.59;;;25.01;57.19
76195;BME280;64964;48.694;21.206;2023-08-30T12:27:15;96934.69;;;24.91;57.13
76195;BME280;64964;48.694;21.206;2023-08-30T12:29:40;96929.66;;;24.84;57.14
76195;BME280;64964;48.694;21.206;2023-08-30T12:32:07;96935.84;;;24.84;58.03
76195;BME280;64964;48.694;21.206;2023-08-30T12:34:33;96927.38;;;24.91;58.47
76195;BME280;64964;48.694;21.206;2023-08-30T12:36:59;96927.69;;;24.90;57.68
76195;BME280;64964;48.694;21.206;2023-08-30T12:39:24;96927.22;;;24.82;57.56
76195;BME280;64964;48.694;21.206;2023-08-30T12:41:49;96919.53;;;24.71;57.32
76195;BME280;64964;48.694;21.206;2023-08-30T12:44:15;96911.00;;;24.58;57.65
76195;BME280;64964;48.694;21.206;2023-08-30T12:46:41;96911.38;;;24.47;58.16
76195;BME280;64964;48.694;21.206;2023-08-30T12:49:06;96911.09;;;24.48;58.42
76195;BME280;64964;48.694;21.206;2023-08-30T12:51:31;96914.91;;;24.47;57.91